sensor_id;sensor_type;location;lat;lon;timestamp;pressure;altitude;pressure_sealevel;temperature;humidity
57024;BME280;42916;54.346;18.562;2024-02-04T00:00:05;99683.23;;;4.41;91.86
57024;BME280;42916;54.346;18.562;2024-02-04T00:02:38;99677.55;;;4.38;91.83
57024;BME280;42916;54.346;18.562;2024-02-04T00:05:05;99685.23;;;4.37;92.08
57024;BME280;42916;54.346;18.562;2024-02-04T00:07:31;99688.84;;;4.37;91.88
57024;BME280;42916;54.346;18.562;2024-02-04T00:09:58;99686.06;;;4.37;92.10
57024;BME280;42916;54.346;18.562;2024-02-04T00:12:25;99686.89;;;4.39;92.18
57024;BME280;42916;54.346;18.562;2024-02-04T00:14:53;99689.81;;;4.41;92.26
57024;BME280;42916;54.346;18.562;2024-02-04T00:17:20;99683.77;;;4.43;92.23
57024;BME280;42916;54.346;18.562;2024-02-04T00:19:46;99686.58;;;4.46;92.47
57024;BME280;42916;54.346;18.562;2024-02-04T00:22:13;99678.77;;;4.47;92.15
57024;BME280;42916;54.346;18.562;2024-02-04T00:24:40;99675.87;;;4.48;92.03
57024;BME280;42916;54.346;18.562;2024-02-04T00:27:07;99677.05;;;4.48;91.87
57024;BME280;42916;54.346;18.562;2024-02-04T00:29:33;99672.96;;;4.48;91.54
57024;BME280;42916;54.346;18.562;2024-02-04T00:32:00;99665.18;;;4.47;91.73
57024;BME280;42916;54.346;18.562;2024-02-04T00:34:27;99661.02;;;4.46;91.93
57024;BME280;42916;54.346;18.562;2024-02-04T00:36:53;99661.23;;;4.44;91.72
57024;BME280;42916;54.346;18.562;2024-02-04T00:39:20;99654.76;;;4.41;91.70
57024;BME280;42916;54.346;18.562;2024-02-04T00:41:47;99667.27;;;4.40;91.46
57024;BME280;42916;54.346;18.562;2024-02-04T00:44:13;99654.98;;;4.40;91.21
57024;BME280;42916;54.346;18.562;2024-02-04T00:46:40;99653.14;;;4.39;90.88
57024;BME280;42916;54.346;18.562;2024-02-04T00:49:07;99650.05;;;4.38;90.90
57024;BME280;42916;54.346;18.562;2024-02-04T00:51:33;99650.11;;;4.36;90.98
57024;BME280;42916;54.346;18.562;2024-02-04T00:54:00;99654.77;;;4.33;90.96
57024;BME280;42916;54.346;18.562;2024-02-04T00:56:27;99663.02;;;4.30;91.16
57024;BME280;42916;54.346;18.562;2024-02-04T00:58:54;99668.27;;;4.28;90.89
57024;BME280;42916;54.346;18.562;2024-02-04T01:01:21;99662.32;;;4.27;91.08
57024;BME280;42916;54.346;18.562;2024-02-04T01:03:47;99656.19;;;4.27;91.10
57024;BME280;42916;54.346;18.562;2024-02-04T01:06:16;99665.07;;;4.29;91.19
57024;BME280;42916;54.346;18.562;2024-02-04T01:08:43;99663.87;;;4.30;91.16
57024;BME280;42916;54.346;18.562;2024-02-04T01:11:09;99664.78;;;4.33;90.97
57024;BME280;42916;54.346;18.562;2024-02-04T01:13:37;99660.23;;;4.33;91.09
57024;BME280;42916;54.346;18.562;2024-02-04T01:16:04;99664.03;;;4.34;91.18
57024;BME280;42916;54.346;18.562;2024-02-04T01:18:31;99657.51;;;4.35;91.15
57024;BME280;42916;54.346;18.562;2024-02-04T01:20:58;99658.85;;;4.37;91.20
57024;BME280;42916;54.346;18.562;2024-02-04T01:23:27;99658.88;;;4.38;91.36
57024;BME280;42916;54.346;18.562;2024-02-04T01:25:53;99668.07;;;4.37;91.22
57024;BME280;42916;54.346;18.562;2024-02-04T01:28:25;99660.72;;;4.39;91.13
57024;BME280;42916;54.346;18.562;2024-02-04T01:30:52;99655.87;;;4.39;90.93
57024;BME280;42916;54.346;18.562;2024-02-04T01:33:19;99654.73;;;4.40;91.21
57024;BME280;42916;54.346;18.562;2024-02-04T01:35:45;99649.79;;;4.41;90.89
57024;BME280;42916;54.346;18.562;2024-02-04T01:38:12;99639.79;;;4.42;91.18
57024;BME280;42916;54.346;18.562;2024-02-04T01:40:39;99641.59;;;4.40;91.19
57024;BME280;42916;54.346;18.562;2024-02-04T01:43:06;99643.94;;;4.39;91.11
57024;BME280;42916;54.346;18.562;2024-02-04T01:45:33;99638.96;;;4.39;90.69
57024;BME280;42916;54.346;18.562;2024-02-04T01:47:59;99635.90;;;4.39;90.91
57024;BME280;42916;54.346;18.562;2024-02-04T01:50:27;99627.05;;;4.38;90.73
57024;BME280;42916;54.346;18.562;2024-02-04T01:52:54;99618.09;;;4.37;90.73
57024;BME280;42916;54.346;18.562;2024-02-04T01:55:21;99611.20;;;4.35;90.84
57024;BME280;42916;54.346;18.562;2024-02-04T01:57:48;99614.76;;;4.33;90.61
57024;BME280;42916;54.346;18.562;2024-02-04T02:00:16;99624.72;;;4.31;90.55
57024;BME280;42916;54.346;18.562;2024-02-04T02:02:46;99608.86;;;4.29;90.44
57024;BME280;42916;54.346;18.562;2024-02-04T02:05:15;99604.57;;;4.27;90.65
57024;BME280;42916;54.346;18.562;2024-02-04T02:07:42;99595.45;;;4.25;90.71
57024;BME280;42916;54.346;18.562;2024-02-04T02:10:13;99594.95;;;4.24;90.83
57024;BME280;42916;54.346;18.562;2024-02-04T02:12:59;99590.06;;;4.23;90.76
57024;BME280;42916;54.346;18.562;2024-02-04T02:15:30;99595.66;;;4.20;90.47
57024;BME280;42916;54.346;18.562;2024-02-04T02:18:07;99589.90;;;4.18;90.37
57024;BME280;42916;54.346;18.562;2024-02-04T02:24:27;99581.61;;;4.15;90.39
57024;BME280;42916;54.346;18.562;2024-02-04T02:26:54;99587.61;;;4.14;90.59
57024;BME280;42916;54.346;18.562;2024-02-04T02:29:23;99576.10;;;4.14;90.76
57024;BME280;42916;54.346;18.562;2024-02-04T02:31:50;99563.43;;;4.13;90.52
57024;BME280;42916;54.346;18.562;2024-02-04T02:34:17;99570.01;;;4.14;90.92
57024;BME280;42916;54.346;18.562;2024-02-04T02:36:46;99568.27;;;4.15;90.94
57024;BME280;42916;54.346;18.562;2024-02-04T02:39:21;99570.48;;;4.18;90.85
57024;BME280;42916;54.346;18.562;2024-02-04T02:41:52;99570.17;;;4.19;90.93
57024;BME280;42916;54.346;18.562;2024-02-04T02:44:23;99566.27;;;4.20;90.49
57024;BME280;42916;54.346;18.562;2024-02-04T02:46:50;99567.61;;;4.20;90.40
57024;BME280;42916;54.346;18.562;2024-02-04T02:49:17;99572.09;;;4.21;90.39
57024;BME280;42916;54.346;18.562;2024-02-04T02:51:44;99574.11;;;4.21;90.67
57024;BME280;42916;54.346;18.562;2024-02-04T02:54:10;99570.92;;;4.21;90.67
57024;BME280;42916;54.346;18.562;2024-02-04T02:56:38;99576.09;;;4.19;90.82
57024;BME280;42916;54.346;18.562;2024-02-04T02:59:05;99576.56;;;4.18;90.64
57024;BME280;42916;54.346;18.562;2024-02-04T03:01:32;99590.10;;;4.19;90.62
57024;BME280;42916;54.346;18.562;2024-02-04T03:03:59;99583.52;;;4.21;90.56
57024;BME280;42916;54.346;18.562;2024-02-04T03:06:27;99586.38;;;4.23;90.77
57024;BME280;42916;54.346;18.562;2024-02-04T03:08:53;99593.86;;;4.25;90.82
57024;BME280;42916;54.346;18.562;2024-02-04T03:11:20;99582.30;;;4.26;90.76
57024;BME280;42916;54.346;18.562;2024-02-04T03:13:47;99577.67;;;4.29;90.71
57024;BME280;42916;54.346;18.562;2024-02-04T03:16:16;99591.14;;;4.29;90.61
57024;BME280;42916;54.346;18.562;2024-02-04T03:18:45;99585.54;;;4.29;90.69
57024;BME280;42916;54.346;18.562;2024-02-04T03:21:16;99584.52;;;4.27;90.50
57024;BME280;42916;54.346;18.562;2024-02-04T03:23:44;99573.85;;;4.27;90.66
57024;BME280;42916;54.346;18.562;2024-02-04T03:26:10;99570.15;;;4.25;90.70
57024;BME280;42916;54.346;18.562;2024-02-04T03:28:37;99564.56;;;4.23;90.91
57024;BME280;42916;54.346;18.562;2024-02-04T03:31:05;99559.80;;;4.20;90.99
57024;BME280;42916;54.346;18.562;2024-02-04T03:33:32;99555.70;;;4.18;90.96
57024;BME280;42916;54.346;18.562;2024-02-04T03:35:58;99550.11;;;4.15;91.09
57024;BME280;42916;54.346;18.562;2024-02-04T03:38:25;99557.02;;;4.11;90.75
57024;BME280;42916;54.346;18.562;2024-02-04T03:40:54;99559.52;;;4.10;91.31
57024;BME280;42916;54.346;18.562;2024-02-04T03:43:21;99557.71;;;4.08;91.37
57024;BME280;42916;54.346;18.562;2024-02-04T03:45:48;99564.85;;;4.07;91.45
57024;BME280;42916;54.346;18.562;2024-02-04T03:48:17;99558.65;;;4.09;91.48
57024;BME280;42916;54.346;18.562;2024-02-04T03:50:43;99569.47;;;4.11;91.62
57024;BME280;42916;54.346;18.562;2024-02-04T03:53:10;99559.52;;;4.14;91.66
57024;BME280;42916;54.346;18.562;2024-02-04T03:55:37;99561.71;;;4.17;91.51
57024;BME280;42916;54.346;18.562;2024-02-04T03:58:04;99557.30;;;4.19;91.68
57024;BME280;42916;54.346;18.562;2024-02-04T04:00:30;99554.00;;;4.20;91.64
57024;BME280;42916;54.346;18.562;2024-02-04T04:02:58;99555.05;;;4.19;91.52
57024;BME280;42916;54.346;18.562;2024-02-04T04:05:24;99547.55;;;4.19;91.61
57024;BME280;42916;54.346;18.562;2024-02-04T04:07:53;99546.63;;;4.18;91.42
57024;BME280;42916;54.346;18.562;2024-02-04T04:10:19;99539.70;;;4.16;91.57
57024;BME280;42916;54.346;18.562;2024-02-04T04:12:46;99537.98;;;4.14;91.55
57024;BME280;42916;54.346;18.562;2024-02-04T04:15:13;99534.49;;;4.12;91.46
57024;BME280;42916;54.346;18.562;2024-02-04T04:17:40;99529.91;;;4.12;91.49
57024;BME280;42916;54.346;18.562;2024-02-04T04:20:07;99532.68;;;4.13;91.16
57024;BME280;42916;54.346;18.562;2024-02-04T04:22:34;99528.25;;;4.14;91.39
57024;BME280;42916;54.346;18.562;2024-02-04T04:25:00;99528.27;;;4.18;91.17
57024;BME280;42916;54.346;18.562;2024-02-04T04:27:27;99524.72;;;4.21;91.10
57024;BME280;42916;54.346;18.562;2024-02-04T04:29:54;99521.92;;;4.21;90.96
57024;BME280;42916;54.346;18.562;2024-02-04T04:32:20;99521.90;;;4.20;90.62
57024;BME280;42916;54.346;18.562;2024-02-04T04:34:47;99509.08;;;4.22;90.29
57024;BME280;42916;54.346;18.562;2024-02-04T04:37:16;99517.22;;;4.25;90.04
57024;BME280;42916;54.346;18.562;2024-02-04T04:39:43;99511.06;;;4.26;90.24
57024;BME280;42916;54.346;18.562;2024-02-04T04:42:10;99500.17;;;4.26;90.12
57024;BME280;42916;54.346;18.562;2024-02-04T04:44:36;99509.30;;;4.26;90.31
57024;BME280;42916;54.346;18.562;2024-02-04T04:47:03;99497.42;;;4.25;90.03
57024;BME280;42916;54.346;18.562;2024-02-04T04:49:30;99498.75;;;4.22;89.69
57024;BME280;42916;54.346;18.562;2024-02-04T04:51:57;99509.59;;;4.23;90.13
57024;BME280;42916;54.346;18.562;2024-02-04T04:54:24;99500.40;;;4.24;90.13
57024;BME280;42916;54.346;18.562;2024-02-04T04:56:50;99500.06;;;4.23;90.13
57024;BME280;42916;54.346;18.562;2024-02-04T04:59:17;99494.84;;;4.21;90.10
57024;BME280;42916;54.346;18.562;2024-02-04T05:01:48;99492.84;;;4.20;90.17
57024;BME280;42916;54.346;18.562;2024-02-04T05:04:16;99489.53;;;4.19;89.89
57024;BME280;42916;54.346;18.562;2024-02-04T05:06:45;99485.27;;;4.19;90.04
57024;BME280;42916;54.346;18.562;2024-02-04T05:09:12;99485.75;;;4.19;89.95
57024;BME280;42916;54.346;18.562;2024-02-04T05:11:38;99486.23;;;4.19;89.98
57024;BME280;42916;54.346;18.562;2024-02-04T05:14:05;99488.63;;;4.20;89.85
57024;BME280;42916;54.346;18.562;2024-02-04T05:16:32;99489.64;;;4.19;89.68
57024;BME280;42916;54.346;18.562;2024-02-04T05:18:59;99486.52;;;4.19;89.47
57024;BME280;42916;54.346;18.562;2024-02-04T05:21:25;99483.23;;;4.19;89.20
57024;BME280;42916;54.346;18.562;2024-02-04T05:23:52;99482.98;;;4.20;89.21
57024;BME280;42916;54.346;18.562;2024-02-04T05:26:19;99478.45;;;4.19;89.20
57024;BME280;42916;54.346;18.562;2024-02-04T05:28:46;99480.90;;;4.19;89.26
57024;BME280;42916;54.346;18.562;2024-02-04T05:31:12;99485.48;;;4.16;89.14
57024;BME280;42916;54.346;18.562;2024-02-04T05:33:39;99488.63;;;4.12;89.14
57024;BME280;42916;54.346;18.562;2024-02-04T05:36:06;99490.70;;;4.11;89.15
57024;BME280;42916;54.346;18.562;2024-02-04T05:38:33;99489.04;;;4.12;89.30
57024;BME280;42916;54.346;18.562;2024-02-04T05:41:00;99498.40;;;4.14;89.38
57024;BME280;42916;54.346;18.562;2024-02-04T05:43:27;99491.11;;;4.18;89.18
57024;BME280;42916;54.346;18.562;2024-02-04T05:45:54;99498.77;;;4.21;89.21
57024;BME280;42916;54.346;18.562;2024-02-04T05:48:21;99500.27;;;4.23;88.89
57024;BME280;42916;54.346;18.562;2024-02-04T05:50:48;99494.30;;;4.23;88.88
57024;BME280;42916;54.346;18.562;2024-02-04T05:53:17;99492.52;;;4.23;89.03
57024;BME280;42916;54.346;18.562;2024-02-04T05:55:44;99490.00;;;4.23;89.38
57024;BME280;42916;54.346;18.562;2024-02-04T05:58:11;99490.83;;;4.24;89.42
57024;BME280;42916;54.346;18.562;2024-02-04T06:00:40;99489.54;;;4.24;89.47
57024;BME280;42916;54.346;18.562;2024-02-04T06:03:07;99490.77;;;4.24;89.46
57024;BME280;42916;54.346;18.562;2024-02-04T06:05:34;99493.45;;;4.25;89.72
57024;BME280;42916;54.346;18.562;2024-02-04T06:08:00;99499.41;;;4.25;89.79
57024;BME280;42916;54.346;18.562;2024-02-04T06:10:27;99494.61;;;4.27;89.91
57024;BME280;42916;54.346;18.562;2024-02-04T06:12:54;99487.27;;;4.29;89.87
57024;BME280;42916;54.346;18.562;2024-02-04T06:15:20;99489.88;;;4.30;89.95
57024;BME280;42916;54.346;18.562;2024-02-04T06:17:48;99487.23;;;4.30;89.96
57024;BME280;42916;54.346;18.562;2024-02-04T06:20:17;99491.79;;;4.31;90.13
57024;BME280;42916;54.346;18.562;2024-02-04T06:22:43;99498.73;;;4.33;90.13
57024;BME280;42916;54.346;18.562;2024-02-04T06:25:10;99489.02;;;4.36;90.31
57024;BME280;42916;54.346;18.562;2024-02-04T06:27:37;99483.83;;;4.37;90.45
57024;BME280;42916;54.346;18.562;2024-02-04T06:30:04;99479.35;;;4.37;90.56
57024;BME280;42916;54.346;18.562;2024-02-04T06:32:31;99487.05;;;4.37;90.83
57024;BME280;42916;54.346;18.562;2024-02-04T06:34:58;99482.77;;;4.35;91.06
57024;BME280;42916;54.346;18.562;2024-02-04T06:37:24;99483.17;;;4.34;91.58
57024;BME280;42916;54.346;18.562;2024-02-04T06:39:52;99480.88;;;4.32;92.19
57024;BME280;42916;54.346;18.562;2024-02-04T06:42:19;99471.48;;;4.29;92.91
57024;BME280;42916;54.346;18.562;2024-02-04T06:44:46;99468.23;;;4.25;93.55
57024;BME280;42916;54.346;18.562;2024-02-04T06:47:12;99467.15;;;4.20;94.54
57024;BME280;42916;54.346;18.562;2024-02-04T06:49:43;99467.80;;;4.15;95.14
57024;BME280;42916;54.346;18.562;2024-02-04T06:52:11;99471.98;;;4.09;95.39
57024;BME280;42916;54.346;18.562;2024-02-04T06:54:38;99467.29;;;4.04;95.84
57024;BME280;42916;54.346;18.562;2024-02-04T06:57:05;99466.97;;;4.01;97.56
57024;BME280;42916;54.346;18.562;2024-02-04T06:59:32;99466.33;;;4.00;98.12
57024;BME280;42916;54.346;18.562;2024-02-04T07:01:58;99465.00;;;3.98;98.19
57024;BME280;42916;54.346;18.562;2024-02-04T07:04:25;99456.44;;;3.97;98.24
57024;BME280;42916;54.346;18.562;2024-02-04T07:06:52;99456.20;;;3.97;98.93
57024;BME280;42916;54.346;18.562;2024-02-04T07:09:19;99452.05;;;3.97;99.14
57024;BME280;42916;54.346;18.562;2024-02-04T07:11:46;99457.23;;;3.97;99.48
57024;BME280;42916;54.346;18.562;2024-02-04T07:14:13;99456.44;;;3.98;99.96
57024;BME280;42916;54.346;18.562;2024-02-04T07:16:39;99450.73;;;3.97;100.00
57024;BME280;42916;54.346;18.562;2024-02-04T07:19:06;99449.55;;;3.98;100.00
57024;BME280;42916;54.346;18.562;2024-02-04T07:21:33;99450.19;;;3.97;100.00
57024;BME280;42916;54.346;18.562;2024-02-04T07:24:00;99449.68;;;3.96;100.00
57024;BME280;42916;54.346;18.562;2024-02-04T07:26:27;99450.53;;;3.94;100.00
57024;BME280;42916;54.346;18.562;2024-02-04T07:28:53;99447.61;;;3.91;100.00
57024;BME280;42916;54.346;18.562;2024-02-04T07:31:20;99450.30;;;3.88;100.00
57024;BME280;42916;54.346;18.562;2024-02-04T07:33:48;99447.11;;;3.87;100.00
57024;BME280;42916;54.346;18.562;2024-02-04T07:36:17;99448.31;;;3.84;100.00
57024;BME280;42916;54.346;18.562;2024-02-04T07:38:43;99439.25;;;3.82;100.00
57024;BME280;42916;54.346;18.562;2024-02-04T07:41:13;99439.80;;;3.81;100.00
57024;BME280;42916;54.346;18.562;2024-02-04T07:43:41;99438.60;;;3.80;100.00
57024;BME280;42916;54.346;18.562;2024-02-04T07:46:08;99439.98;;;3.80;100.00
57024;BME280;42916;54.346;18.562;2024-02-04T07:48:35;99438.05;;;3.79;100.00
57024;BME280;42916;54.346;18.562;2024-02-04T07:51:01;99430.80;;;3.80;100.00
57024;BME280;42916;54.346;18.562;2024-02-04T07:53:28;99439.25;;;3.82;100.00
57024;BME280;42916;54.346;18.562;2024-02-04T07:55:55;99431.70;;;3.83;100.00
57024;BME280;42916;54.346;18.562;2024-02-04T07:58:22;99431.20;;;3.85;100.00
57024;BME280;42916;54.346;18.562;2024-02-04T08:00:48;99425.74;;;3.87;100.00
57024;BME280;42916;54.346;18.562;2024-02-04T08:03:24;99421.11;;;3.89;100.00
57024;BME280;42916;54.346;18.562;2024-02-04T08:05:53;99421.73;;;3.91;100.00
57024;BME280;42916;54.346;18.562;2024-02-04T08:08:25;99423.85;;;3.91;100.00
57024;BME280;42916;54.346;18.562;2024-02-04T08:10:54;99424.88;;;3.93;100.00
57024;BME280;42916;54.346;18.562;2024-02-04T08:13:53;99421.02;;;3.93;100.00
57024;BME280;42916;54.346;18.562;2024-02-04T08:16:31;99417.94;;;3.94;100.00
57024;BME280;42916;54.346;18.562;2024-02-04T08:19:09;99415.64;;;3.98;100.00
57024;BME280;42916;54.346;18.562;2024-02-04T08:21:35;99414.52;;;4.00;100.00
57024;BME280;42916;54.346;18.562;2024-02-04T08:24:02;99412.80;;;4.01;100.00
57024;BME280;42916;54.346;18.562;2024-02-04T08:26:29;99406.79;;;4.02;100.00
57024;BME280;42916;54.346;18.562;2024-02-04T08:28:56;99414.04;;;4.00;100.00
57024;BME280;42916;54.346;18.562;2024-02-04T08:31:23;99413.70;;;4.00;100.00
57024;BME280;42916;54.346;18.562;2024-02-04T08:33:50;99412.66;;;4.00;100.00
57024;BME280;42916;54.346;18.562;2024-02-04T08:36:16;99409.81;;;4.00;100.00
57024;BME280;42916;54.346;18.562;2024-02-04T08:38:44;99404.15;;;3.99;100.00
57024;BME280;42916;54.346;18.562;2024-02-04T08:41:11;99408.08;;;3.99;100.00
57024;BME280;42916;54.346;18.562;2024-02-04T08:43:42;99406.50;;;3.98;100.00
57024;BME280;42916;54.346;18.562;2024-02-04T08:46:08;99414.84;;;3.97;100.00
57024;BME280;42916;54.346;18.562;2024-02-04T08:48:51;99417.15;;;3.95;100.00
57024;BME280;42916;54.346;18.562;2024-02-04T08:51:19;99417.77;;;3.94;100.00
57024;BME280;42916;54.346;18.562;2024-02-04T08:53:45;99413.95;;;3.94;100.00
57024;BME280;42916;54.346;18.562;2024-02-04T08:56:12;99419.02;;;3.92;100.00
57024;BME280;42916;54.346;18.562;2024-02-04T08:58:39;99409.67;;;3.90;100.00
57024;BME280;42916;54.346;18.562;2024-02-04T09:01:06;99410.27;;;3.91;100.00
57024;BME280;42916;54.346;18.562;2024-02-04T09:03:34;99410.02;;;3.91;100.00
57024;BME280;42916;54.346;18.562;2024-02-04T09:06:01;99412.06;;;3.92;100.00
57024;BME280;42916;54.346;18.562;2024-02-04T09:08:28;99411.77;;;3.93;100.00
57024;BME280;42916;54.346;18.562;2024-02-04T09:10:58;99411.67;;;3.95;100.00
57024;BME280;42916;54.346;18.562;2024-02-04T09:13:25;99405.17;;;3.96;100.00
57024;BME280;42916;54.346;18.562;2024-02-04T09:15:52;99402.90;;;3.98;100.00
57024;BME280;42916;54.346;18.562;2024-02-04T09:18:20;99401.58;;;3.99;100.00
57024;BME280;42916;54.346;18.562;2024-02-04T09:20:48;99398.77;;;4.01;100.00
57024;BME280;42916;54.346;18.562;2024-02-04T09:23:35;99399.32;;;4.03;100.00
57024;BME280;42916;54.346;18.562;2024-02-04T09:26:02;99388.86;;;4.04;100.00
57024;BME280;42916;54.346;18.562;2024-02-04T09:28:28;99388.25;;;4.08;100.00
57024;BME280;42916;54.346;18.562;2024-02-04T09:30:55;99387.66;;;4.11;100.00
57024;BME280;42916;54.346;18.562;2024-02-04T09:33:22;99382.06;;;4.11;100.00
57024;BME280;42916;54.346;18.562;2024-02-04T09:35:50;99383.38;;;4.12;100.00
57024;BME280;42916;54.346;18.562;2024-02-04T09:38:16;99379.43;;;4.14;100.00
57024;BME280;42916;54.346;18.562;2024-02-04T09:40:43;99377.39;;;4.17;100.00
57024;BME280;42916;54.346;18.562;2024-02-04T09:43:10;99374.44;;;4.20;100.00
57024;BME280;42916;54.346;18.562;2024-02-04T09:45:38;99371.66;;;4.24;100.00
57024;BME280;42916;54.346;18.562;2024-02-04T09:48:06;99368.63;;;4.28;100.00
57024;BME280;42916;54.346;18.562;2024-02-04T09:50:34;99366.86;;;4.34;100.00
57024;BME280;42916;54.346;18.562;2024-02-04T09:53:03;99367.04;;;4.38;100.00
57024;BME280;42916;54.346;18.562;2024-02-04T09:55:32;99361.92;;;4.46;100.00
57024;BME280;42916;54.346;18.562;2024-02-04T09:57:59;99359.17;;;4.52;100.00
57024;BME280;42916;54.346;18.562;2024-02-04T10:00:29;99358.24;;;4.55;100.00
57024;BME280;42916;54.346;18.562;2024-02-04T10:02:57;99364.86;;;4.56;100.00
57024;BME280;42916;54.346;18.562;2024-02-04T10:05:24;99364.71;;;4.57;100.00
57024;BME280;42916;54.346;18.562;2024-02-04T10:07:51;99363.80;;;4.55;100.00
57024;BME280;42916;54.346;18.562;2024-02-04T10:10:19;99362.71;;;4.51;100.00
57024;BME280;42916;54.346;18.562;2024-02-04T10:12:46;99352.27;;;4.49;100.00
57024;BME280;42916;54.346;18.562;2024-02-04T10:15:13;99354.11;;;4.46;100.00
57024;BME280;42916;54.346;18.562;2024-02-04T10:17:44;99348.52;;;4.44;100.00
57024;BME280;42916;54.346;18.562;2024-02-04T10:20:12;99348.98;;;4.42;100.00
57024;BME280;42916;54.346;18.562;2024-02-04T10:22:40;99351.45;;;4.42;100.00
57024;BME280;42916;54.346;18.562;2024-02-04T10:25:08;99345.26;;;4.42;100.00
57024;BME280;42916;54.346;18.562;2024-02-04T10:27:35;99345.91;;;4.45;100.00
57024;BME280;42916;54.346;18.562;2024-02-04T10:30:02;99342.71;;;4.45;100.00
57024;BME280;42916;54.346;18.562;2024-02-04T10:32:30;99344.14;;;4.43;100.00
57024;BME280;42916;54.346;18.562;2024-02-04T10:34:58;99336.88;;;4.41;100.00
57024;BME280;42916;54.346;18.562;2024-02-04T10:37:26;99329.87;;;4.38;100.00
57024;BME280;42916;54.346;18.562;2024-02-04T10:39:53;99336.58;;;4.36;100.00
57024;BME280;42916;54.346;18.562;2024-02-04T10:42:24;99336.60;;;4.34;100.00
57024;BME280;42916;54.346;18.562;2024-02-04T10:44:54;99338.48;;;4.31;100.00
57024;BME280;42916;54.346;18.562;2024-02-04T10:47:23;99336.81;;;4.29;100.00
57024;BME280;42916;54.346;18.562;2024-02-04T10:49:53;99333.39;;;4.26;100.00
57024;BME280;42916;54.346;18.562;2024-02-04T10:52:20;99321.98;;;4.24;100.00
57024;BME280;42916;54.346;18.562;2024-02-04T10:54:58;99312.38;;;4.21;100.00
57024;BME280;42916;54.346;18.562;2024-02-04T10:57:46;99302.95;;;4.20;100.00
57024;BME280;42916;54.346;18.562;2024-02-04T11:00:15;99299.25;;;4.21;100.00
57024;BME280;42916;54.346;18.562;2024-02-04T11:02:49;99285.20;;;4.21;100.00
57024;BME280;42916;54.346;18.562;2024-02-04T11:05:18;99287.55;;;4.20;100.00
57024;BME280;42916;54.346;18.562;2024-02-04T11:07:47;99282.40;;;4.21;100.00
57024;BME280;42916;54.346;18.562;2024-02-04T11:10:16;99277.60;;;4.20;100.00
57024;BME280;42916;54.346;18.562;2024-02-04T11:12:44;99273.79;;;4.18;100.00
57024;BME280;42916;54.346;18.562;2024-02-04T11:15:14;99271.36;;;4.21;100.00
57024;BME280;42916;54.346;18.562;2024-02-04T11:18:23;99258.23;;;4.22;100.00
57024;BME280;42916;54.346;18.562;2024-02-04T11:21:06;99244.20;;;4.23;100.00
57024;BME280;42916;54.346;18.562;2024-02-04T11:24:14;99237.38;;;4.21;100.00
57024;BME280;42916;54.346;18.562;2024-02-04T11:27:00;99236.08;;;4.20;100.00
57024;BME280;42916;54.346;18.562;2024-02-04T11:29:28;99237.33;;;4.20;100.00
57024;BME280;42916;54.346;18.562;2024-02-04T11:31:56;99231.85;;;4.22;100.00
57024;BME280;42916;54.346;18.562;2024-02-04T11:34:23;99236.73;;;4.24;100.00
57024;BME280;42916;54.346;18.562;2024-02-04T11:36:50;99234.67;;;4.25;100.00
57024;BME280;42916;54.346;18.562;2024-02-04T11:39:18;99234.58;;;4.26;100.00
57024;BME280;42916;54.346;18.562;2024-02-04T11:41:49;99230.09;;;4.25;100.00
57024;BME280;42916;54.346;18.562;2024-02-04T11:44:24;99230.17;;;4.26;100.00
57024;BME280;42916;54.346;18.562;2024-02-04T11:46:55;99228.65;;;4.26;100.00
57024;BME280;42916;54.346;18.562;2024-02-04T11:49:25;99229.44;;;4.28;100.00
57024;BME280;42916;54.346;18.562;2024-02-04T11:51:53;99227.48;;;4.30;100.00
57024;BME280;42916;54.346;18.562;2024-02-04T11:54:20;99226.33;;;4.28;100.00
57024;BME280;42916;54.346;18.562;2024-02-04T11:56:52;99220.39;;;4.28;100.00
57024;BME280;42916;54.346;18.562;2024-02-04T11:59:27;99216.88;;;4.26;100.00
57024;BME280;42916;54.346;18.562;2024-02-04T12:01:57;99213.16;;;4.24;100.00
57024;BME280;42916;54.346;18.562;2024-02-04T12:04:27;99211.68;;;4.22;100.00
57024;BME280;42916;54.346;18.562;2024-02-04T12:06:56;99206.41;;;4.19;100.00
57024;BME280;42916;54.346;18.562;2024-02-04T12:09:23;99205.14;;;4.18;100.00
57024;BME280;42916;54.346;18.562;2024-02-04T12:11:51;99208.34;;;4.15;100.00
57024;BME280;42916;54.346;18.562;2024-02-04T12:14:18;99205.98;;;4.14;100.00
57024;BME280;42916;54.346;18.562;2024-02-04T12:16:47;99196.15;;;4.14;100.00
57024;BME280;42916;54.346;18.562;2024-02-04T12:19:14;99192.95;;;4.13;100.00
57024;BME280;42916;54.346;18.562;2024-02-04T12:21:41;99195.61;;;4.11;100.00
57024;BME280;42916;54.346;18.562;2024-02-04T12:24:10;99191.05;;;4.09;100.00
57024;BME280;42916;54.346;18.562;2024-02-04T12:26:37;99188.52;;;4.08;100.00
57024;BME280;42916;54.346;18.562;2024-02-04T12:29:04;99181.68;;;4.08;100.00
57024;BME280;42916;54.346;18.562;2024-02-04T12:31:31;99185.80;;;4.07;100.00
57024;BME280;42916;54.346;18.562;2024-02-04T12:34:00;99180.05;;;4.07;100.00
57024;BME280;42916;54.346;18.562;2024-02-04T12:36:29;99177.27;;;4.09;100.00
57024;BME280;42916;54.346;18.562;2024-02-04T12:39:00;99174.96;;;4.12;100.00
57024;BME280;42916;54.346;18.562;2024-02-04T12:41:28;99172.58;;;4.13;100.00
57024;BME280;42916;54.346;18.562;2024-02-04T12:43:57;99171.45;;;4.15;100.00
57024;BME280;42916;54.346;18.562;2024-02-04T12:46:25;99171.65;;;4.18;100.00
57024;BME280;42916;54.346;18.562;2024-02-04T12:48:54;99165.69;;;4.18;100.00
57024;BME280;42916;54.346;18.562;2024-02-04T12:51:31;99159.85;;;4.17;100.00
57024;BME280;42916;54.346;18.562;2024-02-04T12:54:07;99157.48;;;4.16;100.00
57024;BME280;42916;54.346;18.562;2024-02-04T12:56:54;99160.20;;;4.15;100.00
57024;BME280;42916;54.346;18.562;2024-02-04T12:59:25;99147.52;;;4.13;100.00
57024;BME280;42916;54.346;18.562;2024-02-04T13:01:59;99135.92;;;4.14;100.00
57024;BME280;42916;54.346;18.562;2024-02-04T13:04:33;99141.42;;;4.17;100.00